createdAt,value
2023-05-20T00:02:34.656Z,47.18
2023-05-20T00:07:37.168Z,47.55
2023-05-20T00:12:39.946Z,47.06
2023-05-20T00:17:42.492Z,46.83
2023-05-20T00:22:45.024Z,47.66
2023-05-20T00:27:47.687Z,47.45
2023-05-20T00:32:50.211Z,48.09
2023-05-20T00:37:52.759Z,48.83
2023-05-20T00:42:55.368Z,49.93
2023-05-20T00:48:00.013Z,49.66
2023-05-20T00:53:02.706Z,50.33
2023-05-20T00:58:05.257Z,50.43
2023-05-20T01:03:08.127Z,50.86
2023-05-20T01:08:11.019Z,50.81
2023-05-20T01:13:17.857Z,51.15
2023-05-20T01:18:21.180Z,51.97
2023-05-20T01:23:23.672Z,51.68
2023-05-20T01:28:27.385Z,51.76
2023-05-20T01:33:31.965Z,51.58
2023-05-20T01:38:37.039Z,52.04
2023-05-20T01:43:40.308Z,51.83
2023-05-20T01:48:44.092Z,52.30
2023-05-20T01:53:46.654Z,52.32
2023-05-20T01:58:49.154Z,50.89
2023-05-20T02:03:51.767Z,49.78
2023-05-20T02:08:54.455Z,49.20
2023-05-20T02:13:57.400Z,48.03
2023-05-20T02:19:00.156Z,46.75
2023-05-20T02:24:02.667Z,46.58
2023-05-20T02:29:05.446Z,45.04
2023-05-20T02:34:08.153Z,43.59
2023-05-20T02:39:11.130Z,42.93
2023-05-20T02:44:13.662Z,43.04
2023-05-20T02:49:16.293Z,42.80
2023-05-20T02:54:18.905Z,41.31
2023-05-20T02:59:21.498Z,40.05
2023-05-20T03:04:25.895Z,39.65
2023-05-20T03:09:28.545Z,38.05
2023-05-20T03:14:31.091Z,36.45
2023-05-20T03:19:33.519Z,35.62
2023-05-20T03:24:36.073Z,34.33
2023-05-20T03:29:38.639Z,33.52
2023-05-20T03:34:41.208Z,32.57
2023-05-20T03:39:43.824Z,32.29
2023-05-20T03:44:46.998Z,31.77
2023-05-20T03:49:51.733Z,31.40
2023-05-20T03:54:54.916Z,30.35
2023-05-20T03:59:57.443Z,30.57
2023-05-20T04:05:01.709Z,30.78
2023-05-20T04:10:07.672Z,29.75
2023-05-20T04:15:10.967Z,30.17
2023-05-20T04:20:27.478Z,29.80
2023-05-20T04:25:33.627Z,29.82
2023-05-20T04:30:36.578Z,29.27
2023-05-20T04:35:41.877Z,29.15
2023-05-20T04:40:45.844Z,28.58
2023-05-20T04:45:48.518Z,28.23
2023-05-20T04:50:52.417Z,28.98
2023-05-20T04:55:57.110Z,28.49
2023-05-20T05:01:00.310Z,29.22
2023-05-20T05:06:03.290Z,28.72
2023-05-20T05:11:07.151Z,27.61
2023-05-20T05:16:09.829Z,26.67
2023-05-20T05:21:12.376Z,26.56
2023-05-20T05:26:15.125Z,25.62
2023-05-20T05:31:19.475Z,24.40
2023-05-20T05:36:22.059Z,24.51
2023-05-20T05:41:25.517Z,25.20
2023-05-20T05:46:28.246Z,25.14
2023-05-20T05:51:31.461Z,24.70
2023-05-20T05:56:34.368Z,24.44
2023-05-20T06:01:37.834Z,23.65
2023-05-20T06:06:41.435Z,23.23
2023-05-20T06:11:44.772Z,24.07
2023-05-20T06:16:48.245Z,23.56
2023-05-20T06:21:50.785Z,22.77
2023-05-20T06:26:53.453Z,21.79
2023-05-20T06:31:56.139Z,21.55
2023-05-20T06:36:59.574Z,21.03
2023-05-20T06:42:02.147Z,21.11
2023-05-20T06:47:05.955Z,20.39
2023-05-20T06:52:08.775Z,19.78
2023-05-20T06:57:11.404Z,18.07
2023-05-20T07:02:14.087Z,17.57
2023-05-20T07:07:17.455Z,17.75
2023-05-20T07:12:21.406Z,18.24
2023-05-20T07:17:24.920Z,17.49
2023-05-20T07:22:27.635Z,17.59
2023-05-20T07:27:34.245Z,16.93
2023-05-20T07:32:38.151Z,16.88
2023-05-20T07:37:41.770Z,17.13
2023-05-20T07:42:44.343Z,17.34
2023-05-20T07:47:46.931Z,16.50
2023-05-20T07:52:56.677Z,16.81
2023-05-20T07:58:03.806Z,16.45
2023-05-20T08:03:09.417Z,16.36
2023-05-20T08:08:30.882Z,15.84
2023-05-20T08:13:42.987Z,16.05
2023-05-20T08:18:45.697Z,16.26
2023-05-20T08:23:48.970Z,16.01
2023-05-20T08:28:51.593Z,15.88
2023-05-20T08:33:55.113Z,15.72
2023-05-20T08:38:57.694Z,15.08
2023-05-20T08:44:02.889Z,14.87
2023-05-20T08:49:06.597Z,15.08
2023-05-20T08:54:10.377Z,14.78
2023-05-20T08:59:13.017Z,14.63
2023-05-20T09:04:15.598Z,14.58
2023-05-20T09:09:18.148Z,15.06
2023-05-20T09:14:21.040Z,14.21
2023-05-20T09:19:24.806Z,14.34
2023-05-20T09:24:27.416Z,14.61
2023-05-20T09:29:34.158Z,13.99
2023-05-20T09:34:38.008Z,14.62
2023-05-20T09:40:04.364Z,15.16
2023-05-20T09:45:09.794Z,15.09
2023-05-20T09:50:13.384Z,14.68
2023-05-20T09:55:18.092Z,14.69
2023-05-20T10:00:22.102Z,15.60
2023-05-20T10:05:38.223Z,15.30
2023-05-20T10:11:03.616Z,15.44
2023-05-20T10:16:43.599Z,15.45
2023-05-20T10:22:01.504Z,15.17
2023-05-20T10:27:08.047Z,16.61
2023-05-20T10:32:10.701Z,16.66
2023-05-20T10:37:26.718Z,17.12
2023-05-20T10:42:30.712Z,17.87
2023-05-20T10:47:33.480Z,17.58
2023-05-20T10:52:39.120Z,18.58
2023-05-20T10:57:41.765Z,19.79
2023-05-20T11:02:45.692Z,19.86
2023-05-20T11:07:48.246Z,20.89
2023-05-20T11:12:51.019Z,21.34
2023-05-20T11:17:58.097Z,21.51
2023-05-20T11:23:01.654Z,21.64
2023-05-20T11:28:04.217Z,21.34
2023-05-20T11:33:07.028Z,21.54
2023-05-20T11:38:10.050Z,21.86
2023-05-20T11:43:13.690Z,21.79
2023-05-20T11:48:16.368Z,21.98
2023-05-20T11:53:21.186Z,21.11
2023-05-20T11:58:26.342Z,22.38
2023-05-20T12:03:29.026Z,21.85
2023-05-20T12:08:31.688Z,22.77
2023-05-20T12:13:35.477Z,23.22
2023-05-20T12:18:38.276Z,23.18
2023-05-20T12:23:40.677Z,23.38
2023-05-20T12:28:44.167Z,23.63
2023-05-20T12:33:46.815Z,23.18
2023-05-20T12:38:49.329Z,23.81
2023-05-20T12:43:51.751Z,23.41
2023-05-20T12:48:54.180Z,23.29
2023-05-20T12:53:56.675Z,24.12
2023-05-20T12:58:59.093Z,24.17
2023-05-20T13:04:01.662Z,24.03
2023-05-20T13:09:04.256Z,24.61
2023-05-20T13:14:06.696Z,24.87
2023-05-20T13:19:09.220Z,24.26
2023-05-20T13:24:11.811Z,24.27
2023-05-20T13:29:14.447Z,25.02
2023-05-20T13:34:17.075Z,24.96
2023-05-20T13:39:19.662Z,24.68
2023-05-20T13:44:22.273Z,24.77
2023-05-20T13:49:25.946Z,25.05
2023-05-20T13:54:28.375Z,24.84
2023-05-20T13:59:30.989Z,26.29
2023-05-20T14:04:38.427Z,26.49
2023-05-20T14:09:40.927Z,26.01
2023-05-20T14:14:43.507Z,26.44
2023-05-20T14:19:46.113Z,26.39
2023-05-20T14:24:48.644Z,26.33
2023-05-20T14:29:51.466Z,25.93
2023-05-20T14:34:54.236Z,25.92
2023-05-20T14:39:56.927Z,25.84
2023-05-20T14:44:59.466Z,25.98
2023-05-20T14:50:04.461Z,25.97
2023-05-20T14:55:08.438Z,25.58
2023-05-20T15:00:12.026Z,26.03
2023-05-20T15:05:15.077Z,25.95
2023-05-20T15:10:18.169Z,26.03
2023-05-20T15:15:21.091Z,26.52
2023-05-20T15:20:23.566Z,26.56
2023-05-20T15:25:26.000Z,27.26
2023-05-20T15:30:28.560Z,28.10
2023-05-20T15:35:31.126Z,28.33
2023-05-20T15:40:34.243Z,28.40
2023-05-20T15:45:36.779Z,29.11
2023-05-20T15:50:40.432Z,29.59
2023-05-20T15:55:44.874Z,30.18
2023-05-20T16:00:48.412Z,30.83
2023-05-20T16:05:50.998Z,32.10
2023-05-20T16:10:53.632Z,33.01
2023-05-20T16:15:57.962Z,33.28
2023-05-20T16:21:00.928Z,33.90
2023-05-20T16:26:03.959Z,34.19
2023-05-20T16:31:06.597Z,34.89
2023-05-20T16:36:09.211Z,35.33
2023-05-20T16:41:11.823Z,35.82
2023-05-20T16:46:14.936Z,36.21
2023-05-20T16:51:19.185Z,35.99
2023-05-20T16:56:23.355Z,36.07
2023-05-20T17:01:26.191Z,36.27
2023-05-20T17:06:28.711Z,36.60
2023-05-20T17:11:31.329Z,37.01
2023-05-20T17:16:34.175Z,37.40
2023-05-20T17:21:37.092Z,38.05
2023-05-20T17:26:39.582Z,38.84
2023-05-20T17:31:42.524Z,39.35
2023-05-20T17:36:45.186Z,39.77
2023-05-20T17:41:47.619Z,39.90
2023-05-20T17:46:50.126Z,40.09
2023-05-20T17:51:52.613Z,40.24
2023-05-20T17:56:55.099Z,40.46
2023-05-20T18:01:57.698Z,40.43
2023-05-20T18:07:00.255Z,40.00
2023-05-20T18:12:02.872Z,39.27
2023-05-20T18:17:05.776Z,38.47
2023-05-20T18:22:08.410Z,38.21
2023-05-20T18:27:11.068Z,38.16
2023-05-20T18:32:14.552Z,38.47
2023-05-20T18:37:17.074Z,38.53
2023-05-20T18:42:19.708Z,38.97
2023-05-20T18:47:22.368Z,39.17
2023-05-20T18:52:24.991Z,39.78
2023-05-20T18:57:27.524Z,40.37
2023-05-20T19:02:30.062Z,40.94
2023-05-20T19:07:32.478Z,41.57
2023-05-20T19:12:34.984Z,42.10
2023-05-20T19:17:37.899Z,42.74
2023-05-20T19:22:40.483Z,43.35
2023-05-20T19:27:42.984Z,43.24
2023-05-20T19:32:45.456Z,43.67
2023-05-20T19:37:47.944Z,43.74
2023-05-20T19:42:51.873Z,43.85
2023-05-20T19:47:56.881Z,44.05
2023-05-20T19:52:59.905Z,44.49
2023-05-20T19:58:02.413Z,44.89
2023-05-20T20:03:07.449Z,45.27
2023-05-20T20:08:09.925Z,45.37
2023-05-20T20:13:12.499Z,45.80
2023-05-20T20:18:14.985Z,45.82
2023-05-20T20:23:17.606Z,46.23
2023-05-20T20:28:20.236Z,46.64
2023-05-20T20:33:22.731Z,47.10
2023-05-20T20:38:25.291Z,47.36
2023-05-20T20:43:29.076Z,47.24
2023-05-20T20:48:31.622Z,47.32
2023-05-20T20:53:34.205Z,47.29
2023-05-20T20:58:37.958Z,47.32
2023-05-20T21:03:44.794Z,47.56
2023-05-20T21:08:48.198Z,47.87
2023-05-20T21:13:50.674Z,48.34
2023-05-20T21:18:53.206Z,48.49
2023-05-20T21:23:56.835Z,48.66
2023-05-20T21:28:59.433Z,49.13
2023-05-20T21:34:01.944Z,49.68
2023-05-20T21:39:04.650Z,50.07
2023-05-20T21:44:07.214Z,50.33
2023-05-20T21:49:09.855Z,50.33
2023-05-20T21:54:12.417Z,50.46
2023-05-20T21:59:15.163Z,50.95
2023-05-20T22:12:01.629Z,52.27
2023-05-20T22:17:04.386Z,52.33
2023-05-20T22:22:07.069Z,53.33
2023-05-20T22:27:09.539Z,53.41
2023-05-20T22:32:12.129Z,53.16
2023-05-20T22:37:14.736Z,53.09
2023-05-20T22:42:17.463Z,53.16
2023-05-20T22:47:19.868Z,53.39
2023-05-20T22:52:25.758Z,53.21
2023-05-20T22:57:29.622Z,53.69
2023-05-20T23:02:32.087Z,53.92
2023-05-20T23:07:34.766Z,53.88
2023-05-20T23:12:37.491Z,53.88
2023-05-20T23:17:40.057Z,54.09
2023-05-20T23:22:44.825Z,53.75
2023-05-20T23:27:47.245Z,54.11
2023-05-20T23:32:50.303Z,53.78
2023-05-20T23:37:52.695Z,53.93
2023-05-20T23:42:55.089Z,53.60
2023-05-20T23:47:57.503Z,53.98
2023-05-20T23:53:00.022Z,54.47
2023-05-20T23:58:02.688Z,54.70
